sensor_id;sensor_type;location;lat;lon;timestamp;P1;durP1;ratioP1;P2;durP2;ratioP2
36371;SDS011;22398;51.346;12.372;2024-02-21T00:00:05;10.38;;;3.30;;
36371;SDS011;22398;51.346;12.372;2024-02-21T00:05:11;10.50;;;2.85;;
36371;SDS011;22398;51.346;12.372;2024-02-21T00:10:14;8.77;;;2.40;;
36371;SDS011;22398;51.346;12.372;2024-02-21T00:15:18;13.88;;;3.85;;
36371;SDS011;22398;51.346;12.372;2024-02-21T00:20:24;13.55;;;3.15;;
36371;SDS011;22398;51.346;12.372;2024-02-21T00:25:28;12.98;;;2.58;;
36371;SDS011;22398;51.346;12.372;2024-02-21T00:30:31;14.25;;;3.00;;
36371;SDS011;22398;51.346;12.372;2024-02-21T00:35:35;10.05;;;3.03;;
36371;SDS011;22398;51.346;12.372;2024-02-21T00:40:40;12.73;;;3.45;;
36371;SDS011;22398;51.346;12.372;2024-02-21T00:45:44;13.43;;;2.80;;
36371;SDS011;22398;51.346;12.372;2024-02-21T00:50:49;14.63;;;3.67;;
36371;SDS011;22398;51.346;12.372;2024-02-21T00:55:53;12.88;;;3.22;;
36371;SDS011;22398;51.346;12.372;2024-02-21T01:00:59;14.35;;;3.13;;
36371;SDS011;22398;51.346;12.372;2024-02-21T01:06:05;12.30;;;3.50;;
36371;SDS011;22398;51.346;12.372;2024-02-21T01:11:08;16.63;;;4.05;;
36371;SDS011;22398;51.346;12.372;2024-02-21T01:16:12;15.65;;;4.32;;
36371;SDS011;22398;51.346;12.372;2024-02-21T01:21:17;12.98;;;3.30;;
36371;SDS011;22398;51.346;12.372;2024-02-21T01:26:21;9.27;;;2.83;;
36371;SDS011;22398;51.346;12.372;2024-02-21T01:31:24;9.48;;;3.30;;
36371;SDS011;22398;51.346;12.372;2024-02-21T01:36:29;14.82;;;2.85;;
36371;SDS011;22398;51.346;12.372;2024-02-21T01:41:33;16.00;;;3.40;;
36371;SDS011;22398;51.346;12.372;2024-02-21T01:46:37;11.98;;;3.22;;
36371;SDS011;22398;51.346;12.372;2024-02-21T01:51:42;11.30;;;3.15;;
36371;SDS011;22398;51.346;12.372;2024-02-21T01:56:46;10.73;;;2.63;;
36371;SDS011;22398;51.346;12.372;2024-02-21T02:01:50;9.88;;;3.10;;
36371;SDS011;22398;51.346;12.372;2024-02-21T02:06:56;10.23;;;3.00;;
36371;SDS011;22398;51.346;12.372;2024-02-21T02:12:03;19.55;;;3.67;;
36371;SDS011;22398;51.346;12.372;2024-02-21T02:17:06;10.38;;;2.97;;
36371;SDS011;22398;51.346;12.372;2024-02-21T02:22:13;10.65;;;3.05;;
36371;SDS011;22398;51.346;12.372;2024-02-21T02:27:24;14.73;;;4.00;;
36371;SDS011;22398;51.346;12.372;2024-02-21T02:32:27;11.17;;;3.00;;
36371;SDS011;22398;51.346;12.372;2024-02-21T02:37:30;11.15;;;3.67;;
36371;SDS011;22398;51.346;12.372;2024-02-21T02:42:35;10.38;;;3.38;;
36371;SDS011;22398;51.346;12.372;2024-02-21T02:47:39;10.57;;;3.50;;
36371;SDS011;22398;51.346;12.372;2024-02-21T02:52:42;16.77;;;2.92;;
36371;SDS011;22398;51.346;12.372;2024-02-21T02:57:47;17.52;;;3.33;;
36371;SDS011;22398;51.346;12.372;2024-02-21T03:02:51;14.00;;;2.92;;
36371;SDS011;22398;51.346;12.372;2024-02-21T03:07:54;13.05;;;3.40;;
36371;SDS011;22398;51.346;12.372;2024-02-21T03:12:59;13.70;;;3.30;;
36371;SDS011;22398;51.346;12.372;2024-02-21T03:18:02;12.30;;;3.20;;
36371;SDS011;22398;51.346;12.372;2024-02-21T03:23:08;11.77;;;2.97;;
36371;SDS011;22398;51.346;12.372;2024-02-21T03:28:12;10.50;;;2.50;;
36371;SDS011;22398;51.346;12.372;2024-02-21T03:33:16;9.73;;;3.03;;
36371;SDS011;22398;51.346;12.372;2024-02-21T03:38:20;11.00;;;3.38;;
36371;SDS011;22398;51.346;12.372;2024-02-21T03:43:24;9.38;;;3.40;;
36371;SDS011;22398;51.346;12.372;2024-02-21T03:48:28;11.90;;;2.90;;
36371;SDS011;22398;51.346;12.372;2024-02-21T03:53:31;13.45;;;3.03;;
36371;SDS011;22398;51.346;12.372;2024-02-21T03:58:36;12.10;;;3.40;;
36371;SDS011;22398;51.346;12.372;2024-02-21T04:03:39;8.40;;;3.40;;
36371;SDS011;22398;51.346;12.372;2024-02-21T04:08:42;11.43;;;3.45;;
36371;SDS011;22398;51.346;12.372;2024-02-21T04:13:47;15.65;;;3.58;;
36371;SDS011;22398;51.346;12.372;2024-02-21T04:18:52;18.95;;;3.50;;
36371;SDS011;22398;51.346;12.372;2024-02-21T04:23:55;10.63;;;3.38;;
36371;SDS011;22398;51.346;12.372;2024-02-21T04:29:00;10.55;;;3.10;;
36371;SDS011;22398;51.346;12.372;2024-02-21T04:34:05;13.43;;;4.47;;
36371;SDS011;22398;51.346;12.372;2024-02-21T04:39:09;14.68;;;3.17;;
36371;SDS011;22398;51.346;12.372;2024-02-21T04:44:14;14.05;;;3.47;;
36371;SDS011;22398;51.346;12.372;2024-02-21T04:49:17;16.90;;;4.40;;
36371;SDS011;22398;51.346;12.372;2024-02-21T04:54:20;16.38;;;4.55;;
36371;SDS011;22398;51.346;12.372;2024-02-21T04:59:25;12.52;;;3.90;;
36371;SDS011;22398;51.346;12.372;2024-02-21T05:04:29;15.77;;;3.50;;
36371;SDS011;22398;51.346;12.372;2024-02-21T05:09:32;13.48;;;3.70;;
36371;SDS011;22398;51.346;12.372;2024-02-21T05:14:37;11.95;;;4.03;;
36371;SDS011;22398;51.346;12.372;2024-02-21T05:19:40;10.77;;;3.73;;
36371;SDS011;22398;51.346;12.372;2024-02-21T05:24:44;17.17;;;4.30;;
36371;SDS011;22398;51.346;12.372;2024-02-21T05:29:49;12.25;;;3.80;;
36371;SDS011;22398;51.346;12.372;2024-02-21T05:34:53;17.90;;;3.83;;
36371;SDS011;22398;51.346;12.372;2024-02-21T05:39:57;21.70;;;4.90;;
36371;SDS011;22398;51.346;12.372;2024-02-21T05:45:01;12.55;;;4.03;;
36371;SDS011;22398;51.346;12.372;2024-02-21T05:50:05;11.38;;;3.67;;
36371;SDS011;22398;51.346;12.372;2024-02-21T05:55:10;18.07;;;4.23;;
36371;SDS011;22398;51.346;12.372;2024-02-21T06:00:15;11.55;;;4.07;;
36371;SDS011;22398;51.346;12.372;2024-02-21T06:05:18;12.38;;;3.67;;
36371;SDS011;22398;51.346;12.372;2024-02-21T06:10:22;11.95;;;3.78;;
36371;SDS011;22398;51.346;12.372;2024-02-21T06:15:27;11.60;;;3.63;;
36371;SDS011;22398;51.346;12.372;2024-02-21T06:20:30;14.30;;;3.80;;
36371;SDS011;22398;51.346;12.372;2024-02-21T06:25:34;16.20;;;4.20;;
36371;SDS011;22398;51.346;12.372;2024-02-21T06:30:39;12.60;;;4.22;;
36371;SDS011;22398;51.346;12.372;2024-02-21T06:35:43;20.85;;;4.15;;
36371;SDS011;22398;51.346;12.372;2024-02-21T06:40:48;13.10;;;3.65;;
36371;SDS011;22398;51.346;12.372;2024-02-21T06:45:55;16.83;;;4.22;;
36371;SDS011;22398;51.346;12.372;2024-02-21T06:50:58;10.60;;;4.07;;
36371;SDS011;22398;51.346;12.372;2024-02-21T06:56:02;20.42;;;5.25;;
36371;SDS011;22398;51.346;12.372;2024-02-21T07:01:07;13.57;;;4.15;;
36371;SDS011;22398;51.346;12.372;2024-02-21T07:06:11;9.00;;;4.55;;
36371;SDS011;22398;51.346;12.372;2024-02-21T07:11:14;12.93;;;4.22;;
36371;SDS011;22398;51.346;12.372;2024-02-21T07:16:19;12.65;;;4.32;;
36371;SDS011;22398;51.346;12.372;2024-02-21T07:21:23;8.33;;;4.30;;
36371;SDS011;22398;51.346;12.372;2024-02-21T07:26:26;14.63;;;5.72;;
36371;SDS011;22398;51.346;12.372;2024-02-21T07:31:31;10.48;;;4.65;;
36371;SDS011;22398;51.346;12.372;2024-02-21T07:36:34;18.20;;;4.80;;
36371;SDS011;22398;51.346;12.372;2024-02-21T07:41:38;10.50;;;4.28;;
36371;SDS011;22398;51.346;12.372;2024-02-21T07:46:44;14.30;;;5.03;;
36371;SDS011;22398;51.346;12.372;2024-02-21T07:51:48;16.48;;;5.60;;
36371;SDS011;22398;51.346;12.372;2024-02-21T07:56:52;17.27;;;5.82;;
36371;SDS011;22398;51.346;12.372;2024-02-21T08:01:57;15.38;;;6.03;;
36371;SDS011;22398;51.346;12.372;2024-02-21T08:07:01;13.27;;;5.43;;
36371;SDS011;22398;51.346;12.372;2024-02-21T08:12:06;12.73;;;5.67;;
36371;SDS011;22398;51.346;12.372;2024-02-21T08:17:19;10.35;;;4.45;;
36371;SDS011;22398;51.346;12.372;2024-02-21T08:22:27;15.00;;;6.05;;
36371;SDS011;22398;51.346;12.372;2024-02-21T08:28:10;16.02;;;4.80;;
36371;SDS011;22398;51.346;12.372;2024-02-21T08:33:16;13.20;;;3.97;;
36371;SDS011;22398;51.346;12.372;2024-02-21T08:43:23;11.98;;;4.75;;
36371;SDS011;22398;51.346;12.372;2024-02-21T08:48:28;11.23;;;4.70;;
36371;SDS011;22398;51.346;12.372;2024-02-21T08:53:32;15.83;;;4.83;;
36371;SDS011;22398;51.346;12.372;2024-02-21T08:58:35;8.13;;;4.25;;
36371;SDS011;22398;51.346;12.372;2024-02-21T09:03:40;11.48;;;5.20;;
36371;SDS011;22398;51.346;12.372;2024-02-21T09:08:44;14.88;;;4.72;;
36371;SDS011;22398;51.346;12.372;2024-02-21T09:13:48;14.00;;;5.65;;
36371;SDS011;22398;51.346;12.372;2024-02-21T09:18:52;20.13;;;4.90;;
36371;SDS011;22398;51.346;12.372;2024-02-21T09:23:56;19.23;;;5.05;;
36371;SDS011;22398;51.346;12.372;2024-02-21T09:29:01;12.60;;;4.27;;
36371;SDS011;22398;51.346;12.372;2024-02-21T09:34:07;13.75;;;5.30;;
36371;SDS011;22398;51.346;12.372;2024-02-21T09:39:10;13.50;;;4.93;;
36371;SDS011;22398;51.346;12.372;2024-02-21T09:44:16;20.30;;;5.50;;
36371;SDS011;22398;51.346;12.372;2024-02-21T09:49:25;22.40;;;5.35;;
36371;SDS011;22398;51.346;12.372;2024-02-21T09:54:34;13.30;;;4.40;;
36371;SDS011;22398;51.346;12.372;2024-02-21T09:59:37;17.38;;;5.50;;
36371;SDS011;22398;51.346;12.372;2024-02-21T10:04:44;13.52;;;5.43;;
36371;SDS011;22398;51.346;12.372;2024-02-21T10:09:48;20.77;;;6.13;;
36371;SDS011;22398;51.346;12.372;2024-02-21T10:14:59;19.98;;;5.50;;
36371;SDS011;22398;51.346;12.372;2024-02-21T10:20:08;16.67;;;4.70;;
36371;SDS011;22398;51.346;12.372;2024-02-21T10:25:12;16.08;;;4.57;;
36371;SDS011;22398;51.346;12.372;2024-02-21T10:30:16;14.98;;;5.38;;
36371;SDS011;22398;51.346;12.372;2024-02-21T10:35:28;12.95;;;4.28;;
36371;SDS011;22398;51.346;12.372;2024-02-21T10:40:32;14.90;;;3.88;;
36371;SDS011;22398;51.346;12.372;2024-02-21T10:45:36;9.30;;;3.95;;
36371;SDS011;22398;51.346;12.372;2024-02-21T10:50:44;13.05;;;4.10;;
36371;SDS011;22398;51.346;12.372;2024-02-21T10:56:06;13.15;;;3.97;;
36371;SDS011;22398;51.346;12.372;2024-02-21T11:01:15;9.43;;;4.05;;
36371;SDS011;22398;51.346;12.372;2024-02-21T11:06:21;11.05;;;3.80;;
36371;SDS011;22398;51.346;12.372;2024-02-21T11:16:40;10.65;;;3.60;;
36371;SDS011;22398;51.346;12.372;2024-02-21T11:21:45;10.00;;;3.80;;
36371;SDS011;22398;51.346;12.372;2024-02-21T11:26:49;7.93;;;3.30;;
36371;SDS011;22398;51.346;12.372;2024-02-21T11:31:53;8.23;;;3.20;;
36371;SDS011;22398;51.346;12.372;2024-02-21T11:36:57;7.93;;;2.47;;
36371;SDS011;22398;51.346;12.372;2024-02-21T11:42:01;10.80;;;3.00;;
36371;SDS011;22398;51.346;12.372;2024-02-21T11:47:05;7.40;;;2.30;;
36371;SDS011;22398;51.346;12.372;2024-02-21T11:52:11;9.43;;;2.75;;
36371;SDS011;22398;51.346;12.372;2024-02-21T11:57:17;9.52;;;2.72;;
36371;SDS011;22398;51.346;12.372;2024-02-21T12:02:21;9.45;;;2.35;;
36371;SDS011;22398;51.346;12.372;2024-02-21T12:07:25;6.93;;;2.50;;
36371;SDS011;22398;51.346;12.372;2024-02-21T12:12:30;5.13;;;2.08;;
36371;SDS011;22398;51.346;12.372;2024-02-21T12:17:39;10.10;;;2.30;;
36371;SDS011;22398;51.346;12.372;2024-02-21T12:22:44;6.18;;;2.35;;
36371;SDS011;22398;51.346;12.372;2024-02-21T12:27:48;10.90;;;2.87;;
36371;SDS011;22398;51.346;12.372;2024-02-21T12:32:51;4.13;;;1.90;;
36371;SDS011;22398;51.346;12.372;2024-02-21T12:37:56;4.78;;;1.88;;
36371;SDS011;22398;51.346;12.372;2024-02-21T12:42:59;5.77;;;2.77;;
36371;SDS011;22398;51.346;12.372;2024-02-21T12:48:04;5.70;;;2.13;;
36371;SDS011;22398;51.346;12.372;2024-02-21T12:53:09;6.55;;;2.40;;
36371;SDS011;22398;51.346;12.372;2024-02-21T12:58:26;5.38;;;2.22;;
36371;SDS011;22398;51.346;12.372;2024-02-21T13:03:33;8.60;;;2.80;;
36371;SDS011;22398;51.346;12.372;2024-02-21T13:08:38;5.53;;;3.00;;
36371;SDS011;22398;51.346;12.372;2024-02-21T13:13:42;7.10;;;2.90;;
36371;SDS011;22398;51.346;12.372;2024-02-21T13:18:45;6.95;;;2.50;;
36371;SDS011;22398;51.346;12.372;2024-02-21T13:23:51;5.90;;;2.50;;
36371;SDS011;22398;51.346;12.372;2024-02-21T13:28:54;11.23;;;2.37;;
36371;SDS011;22398;51.346;12.372;2024-02-21T13:33:57;5.15;;;2.72;;
36371;SDS011;22398;51.346;12.372;2024-02-21T13:39:02;7.97;;;2.55;;
36371;SDS011;22398;51.346;12.372;2024-02-21T13:44:06;9.18;;;2.75;;
36371;SDS011;22398;51.346;12.372;2024-02-21T13:49:11;3.47;;;1.73;;
36371;SDS011;22398;51.346;12.372;2024-02-21T13:54:16;7.07;;;2.22;;
36371;SDS011;22398;51.346;12.372;2024-02-21T13:59:22;6.47;;;2.20;;
36371;SDS011;22398;51.346;12.372;2024-02-21T14:04:25;7.53;;;2.17;;
36371;SDS011;22398;51.346;12.372;2024-02-21T14:09:30;7.32;;;2.30;;
36371;SDS011;22398;51.346;12.372;2024-02-21T14:19:40;6.68;;;1.80;;
36371;SDS011;22398;51.346;12.372;2024-02-21T14:24:45;6.22;;;2.30;;
36371;SDS011;22398;51.346;12.372;2024-02-21T14:29:49;5.68;;;2.03;;
36371;SDS011;22398;51.346;12.372;2024-02-21T14:34:52;6.13;;;2.55;;
36371;SDS011;22398;51.346;12.372;2024-02-21T14:39:57;6.00;;;2.15;;
36371;SDS011;22398;51.346;12.372;2024-02-21T14:45:02;7.95;;;3.20;;
36371;SDS011;22398;51.346;12.372;2024-02-21T14:50:07;4.75;;;1.90;;
36371;SDS011;22398;51.346;12.372;2024-02-21T14:55:12;5.95;;;2.13;;
36371;SDS011;22398;51.346;12.372;2024-02-21T15:00:17;7.72;;;2.10;;
36371;SDS011;22398;51.346;12.372;2024-02-21T15:05:20;9.40;;;2.38;;
36371;SDS011;22398;51.346;12.372;2024-02-21T15:10:25;7.85;;;2.70;;
36371;SDS011;22398;51.346;12.372;2024-02-21T15:15:29;10.88;;;3.63;;
36371;SDS011;22398;51.346;12.372;2024-02-21T15:20:32;8.18;;;2.42;;
36371;SDS011;22398;51.346;12.372;2024-02-21T15:25:37;7.35;;;2.22;;
36371;SDS011;22398;51.346;12.372;2024-02-21T15:30:40;4.30;;;1.97;;
36371;SDS011;22398;51.346;12.372;2024-02-21T15:35:44;6.93;;;2.33;;
36371;SDS011;22398;51.346;12.372;2024-02-21T15:40:48;8.98;;;3.25;;
36371;SDS011;22398;51.346;12.372;2024-02-21T15:45:52;9.30;;;2.60;;
36371;SDS011;22398;51.346;12.372;2024-02-21T15:50:56;7.72;;;2.70;;
36371;SDS011;22398;51.346;12.372;2024-02-21T15:56:01;9.15;;;2.10;;
36371;SDS011;22398;51.346;12.372;2024-02-21T16:01:05;7.63;;;2.28;;
36371;SDS011;22398;51.346;12.372;2024-02-21T16:06:08;5.40;;;2.35;;
36371;SDS011;22398;51.346;12.372;2024-02-21T16:11:15;8.75;;;2.00;;
36371;SDS011;22398;51.346;12.372;2024-02-21T16:16:19;9.55;;;2.60;;
36371;SDS011;22398;51.346;12.372;2024-02-21T16:21:23;6.45;;;1.88;;
36371;SDS011;22398;51.346;12.372;2024-02-21T16:26:30;14.68;;;2.08;;
36371;SDS011;22398;51.346;12.372;2024-02-21T16:31:36;10.35;;;2.28;;
36371;SDS011;22398;51.346;12.372;2024-02-21T16:36:39;6.35;;;1.85;;
36371;SDS011;22398;51.346;12.372;2024-02-21T16:41:44;5.18;;;1.88;;
36371;SDS011;22398;51.346;12.372;2024-02-21T16:46:47;6.77;;;2.93;;
36371;SDS011;22398;51.346;12.372;2024-02-21T16:51:52;4.63;;;1.80;;
36371;SDS011;22398;51.346;12.372;2024-02-21T16:56:57;8.90;;;2.10;;
36371;SDS011;22398;51.346;12.372;2024-02-21T17:02:01;5.15;;;2.15;;
36371;SDS011;22398;51.346;12.372;2024-02-21T17:07:05;8.65;;;1.95;;
36371;SDS011;22398;51.346;12.372;2024-02-21T17:12:10;9.13;;;3.75;;
36371;SDS011;22398;51.346;12.372;2024-02-21T17:17:14;4.77;;;1.93;;
36371;SDS011;22398;51.346;12.372;2024-02-21T17:22:17;6.82;;;2.28;;
36371;SDS011;22398;51.346;12.372;2024-02-21T17:27:23;8.20;;;2.43;;
36371;SDS011;22398;51.346;12.372;2024-02-21T17:32:26;9.03;;;2.30;;
36371;SDS011;22398;51.346;12.372;2024-02-21T17:37:31;5.15;;;2.15;;
36371;SDS011;22398;51.346;12.372;2024-02-21T17:42:37;8.93;;;2.10;;
36371;SDS011;22398;51.346;12.372;2024-02-21T17:47:41;8.85;;;1.98;;
36371;SDS011;22398;51.346;12.372;2024-02-21T17:52:45;6.53;;;2.40;;
36371;SDS011;22398;51.346;12.372;2024-02-21T17:57:49;8.63;;;2.53;;
36371;SDS011;22398;51.346;12.372;2024-02-21T18:02:53;11.53;;;2.80;;
36371;SDS011;22398;51.346;12.372;2024-02-21T18:07:56;6.03;;;2.10;;
36371;SDS011;22398;51.346;12.372;2024-02-21T18:13:01;4.53;;;1.92;;
36371;SDS011;22398;51.346;12.372;2024-02-21T18:18:06;7.45;;;2.38;;
36371;SDS011;22398;51.346;12.372;2024-02-21T18:23:10;7.72;;;2.30;;
36371;SDS011;22398;51.346;12.372;2024-02-21T18:28:14;10.43;;;2.20;;
36371;SDS011;22398;51.346;12.372;2024-02-21T18:33:18;11.50;;;2.20;;
36371;SDS011;22398;51.346;12.372;2024-02-21T18:43:59;12.63;;;2.65;;
36371;SDS011;22398;51.346;12.372;2024-02-21T18:49:03;9.63;;;2.23;;
36371;SDS011;22398;51.346;12.372;2024-02-21T18:54:06;5.05;;;2.17;;
36371;SDS011;22398;51.346;12.372;2024-02-21T18:59:11;11.25;;;2.60;;
36371;SDS011;22398;51.346;12.372;2024-02-21T19:04:15;7.20;;;2.70;;
36371;SDS011;22398;51.346;12.372;2024-02-21T19:09:18;5.00;;;2.10;;
36371;SDS011;22398;51.346;12.372;2024-02-21T19:14:23;8.15;;;2.72;;
36371;SDS011;22398;51.346;12.372;2024-02-21T19:19:27;10.27;;;2.92;;
36371;SDS011;22398;51.346;12.372;2024-02-21T19:24:30;10.65;;;2.63;;
36371;SDS011;22398;51.346;12.372;2024-02-21T19:29:35;10.00;;;2.53;;
36371;SDS011;22398;51.346;12.372;2024-02-21T19:34:38;9.37;;;2.53;;
36371;SDS011;22398;51.346;12.372;2024-02-21T19:39:43;10.40;;;2.50;;
36371;SDS011;22398;51.346;12.372;2024-02-21T19:50:17;4.40;;;2.25;;
36371;SDS011;22398;51.346;12.372;2024-02-21T19:55:23;9.90;;;2.47;;
36371;SDS011;22398;51.346;12.372;2024-02-21T20:00:27;4.57;;;2.10;;
36371;SDS011;22398;51.346;12.372;2024-02-21T20:05:31;6.70;;;2.40;;
36371;SDS011;22398;51.346;12.372;2024-02-21T20:10:34;6.97;;;2.05;;
36371;SDS011;22398;51.346;12.372;2024-02-21T20:15:39;7.65;;;2.05;;
36371;SDS011;22398;51.346;12.372;2024-02-21T20:20:44;7.28;;;1.77;;
36371;SDS011;22398;51.346;12.372;2024-02-21T20:25:47;5.57;;;1.88;;
36371;SDS011;22398;51.346;12.372;2024-02-21T20:30:53;7.30;;;1.90;;
36371;SDS011;22398;51.346;12.372;2024-02-21T20:35:57;8.67;;;1.70;;
36371;SDS011;22398;51.346;12.372;2024-02-21T20:41:01;5.00;;;1.80;;
36371;SDS011;22398;51.346;12.372;2024-02-21T20:46:06;6.13;;;1.60;;
36371;SDS011;22398;51.346;12.372;2024-02-21T20:51:10;9.80;;;1.63;;
36371;SDS011;22398;51.346;12.372;2024-02-21T20:56:13;6.80;;;1.63;;
36371;SDS011;22398;51.346;12.372;2024-02-21T21:01:19;6.70;;;1.42;;
36371;SDS011;22398;51.346;12.372;2024-02-21T21:06:23;5.30;;;1.75;;
36371;SDS011;22398;51.346;12.372;2024-02-21T21:11:27;5.63;;;1.65;;
36371;SDS011;22398;51.346;12.372;2024-02-21T21:16:48;2.45;;;1.30;;
36371;SDS011;22398;51.346;12.372;2024-02-21T21:21:51;6.15;;;1.90;;
36371;SDS011;22398;51.346;12.372;2024-02-21T21:26:57;6.97;;;1.83;;
36371;SDS011;22398;51.346;12.372;2024-02-21T21:32:03;6.65;;;1.20;;
36371;SDS011;22398;51.346;12.372;2024-02-21T21:37:07;6.00;;;1.60;;
36371;SDS011;22398;51.346;12.372;2024-02-21T21:42:11;7.68;;;1.80;;
36371;SDS011;22398;51.346;12.372;2024-02-21T21:47:16;3.90;;;1.88;;
36371;SDS011;22398;51.346;12.372;2024-02-21T21:52:20;4.03;;;1.73;;
36371;SDS011;22398;51.346;12.372;2024-02-21T21:57:24;6.95;;;2.10;;
36371;SDS011;22398;51.346;12.372;2024-02-21T22:02:29;3.80;;;1.52;;
36371;SDS011;22398;51.346;12.372;2024-02-21T22:07:32;7.95;;;1.67;;
36371;SDS011;22398;51.346;12.372;2024-02-21T22:12:36;5.25;;;1.67;;
36371;SDS011;22398;51.346;12.372;2024-02-21T22:17:41;5.03;;;1.77;;
36371;SDS011;22398;51.346;12.372;2024-02-21T22:22:45;5.78;;;1.60;;
36371;SDS011;22398;51.346;12.372;2024-02-21T22:27:48;4.32;;;1.20;;
36371;SDS011;22398;51.346;12.372;2024-02-21T22:32:53;5.18;;;1.60;;
36371;SDS011;22398;51.346;12.372;2024-02-21T22:37:57;4.17;;;1.50;;
36371;SDS011;22398;51.346;12.372;2024-02-21T22:43:01;5.70;;;1.35;;
36371;SDS011;22398;51.346;12.372;2024-02-21T22:48:06;6.35;;;1.15;;
36371;SDS011;22398;51.346;12.372;2024-02-21T22:53:10;8.43;;;1.20;;
36371;SDS011;22398;51.346;12.372;2024-02-21T22:58:14;4.82;;;1.30;;
36371;SDS011;22398;51.346;12.372;2024-02-21T23:03:19;8.65;;;1.50;;
36371;SDS011;22398;51.346;12.372;2024-02-21T23:08:23;4.13;;;1.20;;
36371;SDS011;22398;51.346;12.372;2024-02-21T23:13:27;2.60;;;0.90;;
36371;SDS011;22398;51.346;12.372;2024-02-21T23:18:31;2.20;;;1.13;;
36371;SDS011;22398;51.346;12.372;2024-02-21T23:23:35;5.80;;;1.95;;
36371;SDS011;22398;51.346;12.372;2024-02-21T23:28:41;2.40;;;0.90;;
36371;SDS011;22398;51.346;12.372;2024-02-21T23:33:47;2.55;;;0.80;;
36371;SDS011;22398;51.346;12.372;2024-02-21T23:38:50;1.38;;;0.70;;
36371;SDS011;22398;51.346;12.372;2024-02-21T23:43:54;3.50;;;0.90;;
36371;SDS011;22398;51.346;12.372;2024-02-21T23:49:02;2.83;;;1.10;;
36371;SDS011;22398;51.346;12.372;2024-02-21T23:54:06;2.30;;;0.95;;
36371;SDS011;22398;51.346;12.372;2024-02-21T23:59:10;3.80;;;1.10;;
